Time;durP1;ratioP1;P1;durP2;ratioP2;P2;SDS_P1;SDS_P2;PMS_P1;PMS_P2;Temp;Humidity;BMP_temperature;BMP_pressure;BME280_temperature;BME280_humidity;BME280_pressure;Samples;Min_cycle;Max_cycle;Signal;HPM_P1;HPM_P2
2022/11/26 00:00:29;;;;;;;24.15;17.45;;;20.80;42.20;;;;;;4969259;28;20299;-66
2022/11/26 00:02:56;;;;;;;26.65;17.73;;;20.90;42.30;;;;;;4969591;28;20049;-66
2022/11/26 00:05:29;;;;;;;22.90;16.73;;;20.90;42.30;;;;;;4969686;28;20460;-66
2022/11/26 00:07:59;;;;;;;25.70;18.35;;;20.80;42.20;;;;;;4970074;28;20058;-66
2022/11/26 00:10:29;;;;;;;24.92;18.02;;;20.80;42.20;;;;;;4969204;28;20084;-66
2022/11/26 00:12:56;;;;;;;24.38;17.67;;;20.80;42.30;;;;;;4969456;28;20062;-66
2022/11/26 00:15:26;;;;;;;25.63;18.05;;;20.80;42.20;;;;;;4969368;28;20057;-66
2022/11/26 00:17:54;;;;;;;23.83;17.40;;;20.80;42.20;;;;;;4952024;28;20391;-66
2022/11/26 00:20:27;;;;;;;26.55;19.35;;;20.80;42.20;;;;;;4969362;28;20046;-66
2022/11/26 00:22:57;;;;;;;25.20;18.17;;;20.80;42.20;;;;;;4967423;28;20519;-66
2022/11/26 00:25:30;;;;;;;26.83;18.58;;;20.80;42.20;;;;;;4966794;28;20062;-66
2022/11/26 00:27:57;;;;;;;23.30;18.00;;;20.80;42.20;;;;;;4969257;28;20053;-66
2022/11/26 00:30:26;;;;;;;25.25;18.58;;;20.80;42.20;;;;;;4969254;28;20456;-65
2022/11/26 00:32:54;;;;;;;26.65;17.95;;;20.80;42.20;;;;;;4969205;28;20049;-65
2022/11/26 00:35:22;;;;;;;23.80;17.02;;;20.80;42.20;;;;;;4968927;28;20058;-66
2022/11/26 00:37:56;;;;;;;24.58;17.48;;;20.80;42.20;;;;;;4968959;28;20058;-65
2022/11/26 00:40:26;;;;;;;24.48;17.77;;;20.80;42.20;;;;;;4952026;28;20047;-65
2022/11/26 00:42:54;;;;;;;23.85;16.98;;;20.80;42.20;;;;;;4967856;28;20055;-65
2022/11/26 00:45:29;;;;;;;25.40;17.98;;;20.80;42.20;;;;;;4952626;28;20051;-66
2022/11/26 00:47:56;;;;;;;22.38;17.42;;;20.80;42.20;;;;;;4969044;28;20078;-65
2022/11/26 00:50:26;;;;;;;22.75;16.13;;;20.80;42.20;;;;;;4951731;28;20508;-66
2022/11/26 00:52:55;;;;;;;24.88;17.85;;;20.80;42.20;;;;;;4968908;28;20058;-66
2022/11/26 00:55:33;;;;;;;23.35;17.65;;;20.80;42.20;;;;;;4964635;28;20042;-66
2022/11/26 00:58:01;;;;;;;25.10;17.48;;;20.80;42.20;;;;;;4951978;28;20124;-66
2022/11/26 01:00:31;;;;;;;22.83;16.88;;;20.80;42.20;;;;;;4951452;28;20271;-66
2022/11/26 01:02:59;;;;;;;24.30;17.65;;;20.80;42.20;;;;;;4969676;28;20061;-66
2022/11/26 01:05:32;;;;;;;22.85;17.05;;;20.80;42.10;;;;;;4968657;28;20062;-66
2022/11/26 01:08:11;;;;;;;25.10;17.75;;;20.80;42.10;;;;;;4969064;28;20476;-66
2022/11/26 01:10:38;;;;;;;24.25;16.40;;;20.80;42.10;;;;;;4952949;28;20047;-65
2022/11/26 01:13:08;;;;;;;22.80;16.88;;;20.80;42.10;;;;;;4969809;28;20054;-66
2022/11/26 01:15:36;;;;;;;22.92;16.38;;;20.80;42.10;;;;;;4972403;28;20043;-65
2022/11/26 01:18:11;;;;;;;25.38;17.52;;;20.80;42.10;;;;;;4971888;28;20057;-66
2022/11/26 01:20:38;;;;;;;24.23;16.95;;;20.80;42.10;;;;;;4972560;28;20062;-65
2022/11/26 01:23:09;;;;;;;23.63;16.42;;;20.80;42.10;;;;;;4971645;28;20504;-65
2022/11/26 01:25:36;;;;;;;24.50;17.45;;;20.70;42.10;;;;;;4971499;28;20066;-65
2022/11/26 01:28:04;;;;;;;21.88;17.02;;;20.80;42.10;;;;;;4967756;28;20130;-65
2022/11/26 01:30:32;;;;;;;26.98;18.15;;;20.70;42.00;;;;;;4972571;28;20054;-65
2022/11/26 01:33:00;;;;;;;24.10;17.80;;;20.80;42.10;;;;;;4972252;28;20051;-65
2022/11/26 01:35:28;;;;;;;22.33;16.13;;;20.80;42.10;;;;;;4972383;28;20058;-65
2022/11/26 01:37:55;;;;;;;20.17;14.93;;;20.80;42.10;;;;;;4970979;28;20497;-65
2022/11/26 01:40:32;;;;;;;23.85;16.92;;;20.70;42.10;;;;;;4971999;28;20050;-66
2022/11/26 01:43:05;;;;;;;22.33;16.02;;;20.70;42.00;;;;;;4955709;28;20514;-66
2022/11/26 01:45:32;;;;;;;23.02;17.02;;;20.70;42.00;;;;;;4972141;28;20505;-65
2022/11/26 01:47:59;;;;;;;24.50;16.67;;;20.70;42.10;;;;;;4971756;28;20059;-65
2022/11/26 01:50:49;;;;;;;22.48;16.67;;;20.70;42.00;;;;;;4972055;28;20224;-66
2022/11/26 01:53:32;;;;;;;23.25;16.83;;;20.70;42.00;;;;;;4972462;28;20348;-65
2022/11/26 01:56:13;;;;;;;22.88;15.60;;;20.70;42.00;;;;;;4971858;28;20050;-65
2022/11/26 01:58:42;;;;;;;;;;;20.70;42.60;;;;;;4971944;28;20046;-65
2022/11/26 02:01:09;;;;;;;24.77;16.83;;;20.70;42.10;;;;;;4967272;28;19922;-65
2022/11/26 02:04:10;;;;;;;25.05;17.00;;;20.70;42.10;;;;;;4971613;28;20046;-66
2022/11/26 02:06:38;;;;;;;26.52;16.63;;;20.70;42.10;;;;;;4971812;28;20054;-66
2022/11/26 02:09:08;;;;;;;21.92;15.85;;;20.70;42.00;;;;;;4954488;28;20038;-65
2022/11/26 02:11:36;;;;;;;21.98;15.85;;;20.70;42.00;;;;;;4970791;28;20053;-65
2022/11/26 02:14:17;;;;;;;21.35;15.35;;;20.70;42.10;;;;;;4971662;28;20054;-65
2022/11/26 02:17:13;;;;;;;22.80;16.20;;;20.70;42.10;;;;;;4971619;28;20049;-65
2022/11/26 02:20:08;;;;;;;22.67;16.15;;;20.70;42.00;;;;;;4954370;28;20533;-65
2022/11/26 02:23:14;;;;;;;23.77;17.17;;;20.70;42.00;;;;;;4971206;28;20507;-65
2022/11/26 02:26:13;;;;;;;21.05;15.60;;;20.60;42.00;;;;;;4956564;28;20107;-65
2022/11/26 02:29:17;;;;;;;24.05;15.88;;;20.70;42.10;;;;;;4971161;28;20043;-65
2022/11/26 02:31:57;;;;;;;23.95;16.40;;;20.60;42.00;;;;;;4952220;28;20047;-65
2022/11/26 02:34:44;;;;;;;21.87;15.83;;;20.60;42.00;;;;;;4971297;28;20580;-66
2022/11/26 02:37:24;;;;;;;25.77;16.13;;;20.60;42.00;;;;;;4970843;28;20053;-65
2022/11/26 02:39:51;;;;;;;20.55;15.23;;;20.60;42.00;;;;;;4970923;28;20054;-65
2022/11/26 02:42:31;;;;;;;22.35;15.15;;;20.70;42.00;;;;;;4970867;28;20061;-65
2022/11/26 02:45:07;;;;;;;23.17;16.33;;;20.60;42.00;;;;;;4970660;28;20078;-65
2022/11/26 02:47:38;;;;;;;19.85;15.55;;;20.60;42.00;;;;;;4970247;28;20051;-65
2022/11/26 02:50:13;;;;;;;21.90;16.35;;;20.60;42.00;;;;;;4970932;28;20413;-65
2022/11/26 02:52:42;;;;;;;20.33;14.60;;;20.60;42.00;;;;;;4970485;28;20137;-65
2022/11/26 02:55:12;;;;;;;20.70;14.45;;;20.60;42.00;;;;;;4971053;28;20055;-65
2022/11/26 02:57:49;;;;;;;21.70;16.00;;;20.60;42.00;;;;;;4970392;28;20049;-66
2022/11/26 03:00:17;;;;;;;21.80;15.52;;;20.60;42.00;;;;;;4970354;28;20231;-66
2022/11/26 03:03:07;;;;;;;21.23;16.00;;;20.60;42.00;;;;;;4966327;28;20057;-66
2022/11/26 03:05:38;;;;;;;21.73;15.80;;;20.60;42.00;;;;;;4970236;28;20051;-66
2022/11/26 03:08:06;;;;;;;21.58;14.73;;;20.60;42.00;;;;;;4970837;28;20064;-65
2022/11/26 03:10:33;;;;;;;23.75;15.20;;;20.70;42.00;;;;;;4969269;28;20062;-66
2022/11/26 03:13:00;;;;;;;21.08;15.35;;;20.60;42.00;;;;;;4970649;28;20461;-65
2022/11/26 03:15:27;;;;;;;21.75;15.05;;;20.70;42.00;;;;;;4970692;28;20637;-65
2022/11/26 03:17:54;;;;;;;22.08;14.80;;;20.60;41.90;;;;;;4969906;28;20054;-66
2022/11/26 03:20:21;;;;;;;21.65;15.00;;;20.60;41.90;;;;;;4970181;28;20412;-66
2022/11/26 03:22:49;;;;;;;21.13;14.88;;;20.60;41.90;;;;;;4970202;28;20038;-65
2022/11/26 03:25:16;;;;;;;23.40;15.65;;;20.60;41.90;;;;;;4970240;28;20047;-66
2022/11/26 03:27:43;;;;;;;20.33;14.98;;;20.60;41.90;;;;;;4953290;28;20047;-66
2022/11/26 03:30:10;;;;;;;19.25;13.63;;;20.60;41.90;;;;;;4970565;28;20046;-66
2022/11/26 03:32:37;;;;;;;20.40;14.75;;;20.60;41.90;;;;;;4970144;28;20051;-66
2022/11/26 03:35:05;;;;;;;19.67;14.52;;;20.60;41.90;;;;;;4951037;28;20047;-66
2022/11/26 03:37:32;;;;;;;20.08;14.38;;;20.60;41.90;;;;;;4966788;28;20053;-65
2022/11/26 03:40:00;;;;;;;19.88;15.07;;;20.60;41.90;;;;;;4969929;28;20046;-66
2022/11/26 03:42:27;;;;;;;20.15;14.85;;;20.60;41.90;;;;;;4969906;28;20551;-65
2022/11/26 03:44:54;;;;;;;22.25;14.80;;;20.60;41.90;;;;;;4969848;28;20051;-66
2022/11/26 03:47:21;;;;;;;23.15;15.75;;;20.60;41.90;;;;;;4969995;28;20435;-66
2022/11/26 03:49:48;;;;;;;20.60;14.85;;;20.60;41.90;;;;;;4969707;28;20050;-66
2022/11/26 03:52:15;;;;;;;19.48;13.85;;;20.60;41.80;;;;;;4969056;28;20508;-66
2022/11/26 03:54:42;;;;;;;19.73;15.13;;;20.60;41.80;;;;;;4969902;28;20472;-66
2022/11/26 03:57:09;;;;;;;20.98;14.93;;;20.60;41.80;;;;;;4969613;28;20065;-66
2022/11/26 03:59:36;;;;;;;21.23;14.52;;;20.60;41.80;;;;;;4969555;28;20046;-66
2022/11/26 04:02:03;;;;;;;20.92;14.65;;;20.60;41.90;;;;;;4970019;28;20054;-66
2022/11/26 04:04:31;;;;;;;21.33;14.77;;;20.60;42.40;;;;;;4969028;28;20050;-66
2022/11/26 04:06:58;;;;;;;20.38;14.93;;;20.60;41.80;;;;;;4966555;28;20061;-66
2022/11/26 04:09:25;;;;;;;19.45;14.20;;;20.60;42.10;;;;;;4951713;28;20046;-66
2022/11/26 04:11:52;;;;;;;22.33;15.23;;;20.60;41.80;;;;;;4951694;28;20051;-66
2022/11/26 04:14:19;;;;;;;19.75;13.70;;;20.60;41.80;;;;;;4969297;28;20050;-66
2022/11/26 04:16:46;;;;;;;19.75;14.55;;;20.50;41.70;;;;;;4967956;28;20054;-66
2022/11/26 04:19:13;;;;;;;22.30;15.55;;;20.60;41.80;;;;;;4969433;28;20046;-66
2022/11/26 04:21:40;;;;;;;20.08;13.38;;;20.60;41.80;;;;;;4969474;28;20441;-65
2022/11/26 04:24:07;;;;;;;16.98;12.77;;;20.50;41.70;;;;;;4968949;28;20051;-66
2022/11/26 04:26:35;;;;;;;20.75;15.20;;;20.60;41.80;;;;;;4968176;28;20367;-65
2022/11/26 04:29:02;;;;;;;20.77;14.52;;;20.50;41.70;;;;;;4951960;28;20296;-66
2022/11/26 04:31:29;;;;;;;20.92;13.95;;;20.50;41.70;;;;;;4969631;28;20050;-65
2022/11/26 04:33:56;;;;;;;18.65;13.63;;;20.60;41.80;;;;;;4969271;28;20294;-66
2022/11/26 04:36:23;;;;;;;19.35;13.80;;;20.60;41.80;;;;;;4969126;28;20062;-66
2022/11/26 04:38:50;;;;;;;21.30;14.68;;;20.60;41.70;;;;;;4968019;28;20043;-66
2022/11/26 04:41:17;;;;;;;17.70;12.70;;;20.50;41.70;;;;;;4964973;28;20444;-66
2022/11/26 04:43:44;;;;;;;18.08;12.52;;;20.50;41.70;;;;;;4969038;28;20093;-67
2022/11/26 04:46:12;;;;;;;18.33;13.40;;;20.60;41.70;;;;;;4968800;28;20489;-66
2022/11/26 04:48:39;;;;;;;18.40;13.23;;;20.50;41.70;;;;;;4970798;28;20046;-66
2022/11/26 04:51:06;;;;;;;18.30;13.73;;;20.50;41.70;;;;;;4973073;28;20097;-66
2022/11/26 04:53:33;;;;;;;19.60;12.77;;;20.50;41.70;;;;;;4972912;28;20058;-66
2022/11/26 04:56:00;;;;;;;20.48;13.80;;;20.60;41.70;;;;;;4973603;28;20051;-66
2022/11/26 04:58:27;;;;;;;20.05;13.57;;;20.50;41.70;;;;;;4972602;28;20275;-66
2022/11/26 05:00:54;;;;;;;20.60;13.85;;;20.50;41.70;;;;;;4972696;28;20454;-66
2022/11/26 05:03:22;;;;;;;17.45;12.85;;;20.60;41.70;;;;;;4972982;28;20058;-66
2022/11/26 05:05:49;;;;;;;21.95;13.32;;;20.50;41.70;;;;;;4971353;28;20097;-66
2022/11/26 05:08:16;;;;;;;18.70;13.40;;;20.50;41.70;;;;;;4971366;28;20073;-66
2022/11/26 05:10:43;;;;;;;19.35;12.88;;;20.50;41.70;;;;;;4971595;28;20043;-66
2022/11/26 05:13:10;;;;;;;17.77;12.63;;;20.50;41.70;;;;;;4969218;28;20273;-66
2022/11/26 05:15:37;;;;;;;18.33;12.88;;;20.60;41.80;;;;;;4973050;28;20046;-66
2022/11/26 05:18:04;;;;;;;16.27;12.10;;;20.50;41.70;;;;;;4971881;28;20501;-66
2022/11/26 05:20:31;;;;;;;18.88;12.73;;;20.60;41.80;;;;;;4972866;28;20074;-65
2022/11/26 05:22:58;;;;;;;18.25;12.68;;;20.60;41.70;;;;;;4972663;28;20405;-66
2022/11/26 05:25:25;;;;;;;18.10;12.10;;;20.50;41.70;;;;;;4972669;28;20564;-65
2022/11/26 05:27:52;;;;;;;18.25;12.73;;;20.60;41.70;;;;;;4972250;28;20054;-66
2022/11/26 05:30:20;;;;;;;16.83;12.43;;;20.60;41.70;;;;;;4972155;28;20508;-66
2022/11/26 05:32:47;;;;;;;19.58;12.25;;;20.60;41.70;;;;;;4972516;28;20501;-65
2022/11/26 05:35:14;;;;;;;19.27;13.57;;;20.60;41.70;;;;;;4972186;28;20549;-65
2022/11/26 05:37:41;;;;;;;18.20;12.65;;;20.60;41.60;;;;;;4972023;28;20050;-66
2022/11/26 05:40:09;;;;;;;18.25;13.35;;;20.60;41.40;;;;;;4972028;28;20047;-66
2022/11/26 05:42:36;;;;;;;19.45;12.70;;;20.60;41.20;;;;;;4968349;28;20049;-65
2022/11/26 05:45:04;;;;;;;18.52;13.35;;;20.60;41.20;;;;;;4969729;28;20413;-66
2022/11/26 05:47:31;;;;;;;18.70;12.70;;;20.60;41.20;;;;;;4971842;28;20057;-65
2022/11/26 05:49:58;;;;;;;18.55;13.07;;;20.50;41.20;;;;;;4971738;28;20043;-66
2022/11/26 05:52:25;;;;;;;20.45;13.45;;;20.50;41.10;;;;;;4971540;28;20054;-66
2022/11/26 05:54:52;;;;;;;18.88;13.02;;;20.50;41.10;;;;;;4971500;28;20055;-66
2022/11/26 05:57:19;;;;;;;16.80;12.50;;;20.60;41.10;;;;;;4972163;28;20058;-66
2022/11/26 05:59:48;;;;;;;17.35;11.80;;;20.50;41.10;;;;;;4969945;28;20125;-66
2022/11/26 06:02:15;;;;;;;17.92;12.18;;;20.60;41.10;;;;;;4971712;28;20086;-66
2022/11/26 06:04:43;;;;;;;16.40;11.93;;;20.60;41.00;;;;;;4972090;28;20051;-66
2022/11/26 06:07:10;;;;;;;16.63;12.05;;;20.60;41.00;;;;;;4971220;28;20261;-66
2022/11/26 06:09:37;;;;;;;17.35;12.32;;;20.60;41.00;;;;;;4971752;28;20047;-66
2022/11/26 06:12:05;;;;;;;18.60;12.43;;;20.60;40.90;;;;;;4971151;28;20078;-66
2022/11/26 06:14:32;;;;;;;18.13;13.10;;;20.70;40.90;;;;;;4970348;28;20062;-66
2022/11/26 06:16:59;;;;;;;20.55;13.23;;;20.70;40.80;;;;;;4966966;28;20061;-67
2022/11/26 06:19:26;;;;;;;18.15;12.15;;;20.70;40.80;;;;;;4971383;28;20152;-66
2022/11/26 06:21:53;;;;;;;16.67;12.25;;;20.70;40.70;;;;;;4971423;28;20050;-66
2022/11/26 06:24:20;;;;;;;16.88;12.00;;;20.80;40.70;;;;;;4970758;28;20043;-66
2022/11/26 06:26:47;;;;;;;18.70;12.80;;;20.80;40.70;;;;;;4971344;28;20461;-66
2022/11/26 06:29:15;;;;;;;17.38;12.27;;;20.80;40.70;;;;;;4971780;28;20398;-66
2022/11/26 06:31:42;;;;;;;16.77;11.98;;;20.80;40.60;;;;;;4970861;28;20077;-66
2022/11/26 06:34:10;;;;;;;15.73;12.02;;;20.80;40.60;;;;;;4971763;28;20054;-66
2022/11/26 06:36:37;;;;;;;18.52;12.35;;;20.80;40.50;;;;;;4970288;28;20061;-66
2022/11/26 06:39:04;;;;;;;17.40;12.30;;;20.90;40.50;;;;;;4971355;28;20054;-66
2022/11/26 06:41:31;;;;;;;18.77;11.73;;;20.90;40.40;;;;;;4970545;28;20070;-66
2022/11/26 06:43:58;;;;;;;18.90;12.50;;;20.90;40.40;;;;;;4970751;28;20055;-66
2022/11/26 06:46:26;;;;;;;16.33;11.30;;;20.90;40.30;;;;;;4970622;28;20532;-66
2022/11/26 06:48:53;;;;;;;14.93;11.38;;;20.90;40.20;;;;;;4965942;28;20435;-66
2022/11/26 06:51:20;;;;;;;17.80;12.35;;;21.00;40.30;;;;;;4971097;28;20050;-66
2022/11/26 06:53:48;;;;;;;17.48;12.93;;;21.00;40.20;;;;;;4971144;28;20046;-66
2022/11/26 06:56:16;;;;;;;16.95;12.18;;;21.00;40.20;;;;;;4953650;28;20058;-66
2022/11/26 06:58:46;;;;;;;18.88;12.75;;;21.00;40.20;;;;;;4970943;28;20101;-66
2022/11/26 07:01:19;;;;;;;17.88;12.73;;;21.10;40.20;;;;;;4970791;28;20051;-66
2022/11/26 07:03:46;;;;;;;17.65;12.50;;;21.10;40.10;;;;;;4971262;28;20047;-66
2022/11/26 07:06:25;;;;;;;16.65;12.63;;;21.10;40.00;;;;;;4970202;28;20058;-66
2022/11/26 07:08:54;;;;;;;13.98;11.30;;;21.10;40.00;;;;;;4953383;28;20508;-66
2022/11/26 07:11:22;;;;;;;17.30;12.65;;;21.10;40.00;;;;;;4969866;28;20409;-66
2022/11/26 07:13:49;;;;;;;15.45;11.25;;;21.10;40.00;;;;;;4952512;28;20050;-66
2022/11/26 07:16:17;;;;;;;19.17;13.35;;;21.20;39.90;;;;;;4970965;28;20046;-66
2022/11/26 07:18:51;;;;;;;15.75;12.20;;;21.20;39.90;;;;;;4969216;28;20097;-66
2022/11/26 07:21:27;;;;;;;20.83;13.27;;;21.20;39.80;;;;;;4966435;28;20046;-66
2022/11/26 07:23:55;;;;;;;18.70;12.77;;;21.30;39.80;;;;;;4970367;28;20047;-66
2022/11/26 07:26:22;;;;;;;18.50;12.65;;;21.30;39.80;;;;;;4969663;28;20046;-66
2022/11/26 07:28:49;;;;;;;16.88;12.18;;;21.30;39.70;;;;;;4970017;28;20054;-66
2022/11/26 07:31:19;;;;;;;17.02;12.95;;;21.30;39.70;;;;;;4969511;28;20054;-66
2022/11/26 07:33:47;;;;;;;17.07;13.07;;;21.40;39.60;;;;;;4970134;28;20051;-66
2022/11/26 07:36:20;;;;;;;17.52;12.57;;;21.40;39.60;;;;;;4970287;28;20658;-67
2022/11/26 07:38:48;;;;;;;18.05;13.73;;;21.40;39.50;;;;;;4953053;28;20051;-66
2022/11/26 07:41:17;;;;;;;16.75;12.52;;;21.50;39.50;;;;;;4970120;28;20604;-66
2022/11/26 07:43:45;;;;;;;15.38;12.38;;;21.50;39.40;;;;;;4969763;28;20059;-66
2022/11/26 07:46:14;;;;;;;17.80;13.38;;;21.50;39.30;;;;;;4968887;28;20046;-66
2022/11/26 07:48:42;;;;;;;18.92;12.57;;;21.60;39.30;;;;;;4969299;28;20105;-66
2022/11/26 07:51:22;;;;;;;17.20;13.02;;;21.60;39.30;;;;;;4969966;28;20367;-66
2022/11/26 07:53:49;;;;;;;16.80;11.98;;;21.60;39.20;;;;;;4967001;28;20051;-66
2022/11/26 07:56:17;;;;;;;19.60;12.73;;;21.70;39.20;;;;;;4969507;28;20054;-67
2022/11/26 07:58:44;;;;;;;17.90;12.90;;;21.70;39.20;;;;;;4969584;28;20049;-66
2022/11/26 08:01:14;;;;;;;18.55;13.95;;;21.70;39.10;;;;;;4952165;28;20050;-66
2022/11/26 08:03:47;;;;;;;16.85;12.55;;;21.70;39.10;;;;;;4969522;28;20074;-66
2022/11/26 08:06:17;;;;;;;16.95;13.48;;;21.80;39.00;;;;;;4969671;28;20054;-66
2022/11/26 08:08:44;;;;;;;18.70;14.00;;;21.80;38.90;;;;;;4969735;28;20050;-66
2022/11/26 08:11:17;;;;;;;18.13;13.63;;;21.80;38.90;;;;;;4969641;28;20661;-66
2022/11/26 08:13:45;;;;;;;18.70;13.45;;;21.90;38.90;;;;;;4969412;28;20049;-66
2022/11/26 08:16:14;;;;;;;16.33;12.73;;;21.90;38.90;;;;;;4969840;28;20073;-66
2022/11/26 08:18:41;;;;;;;20.40;14.63;;;21.90;38.80;;;;;;4951932;28;20038;-66
2022/11/26 08:21:08;;;;;;;19.08;14.02;;;21.90;38.80;;;;;;4968998;28;20054;-66
2022/11/26 08:23:37;;;;;;;20.55;14.77;;;22.00;38.80;;;;;;4969214;28;20484;-66
2022/11/26 08:26:09;;;;;;;18.77;13.93;;;22.00;38.70;;;;;;4968896;28;20058;-66
2022/11/26 08:28:58;;;;;;;19.17;13.55;;;22.00;38.70;;;;;;4966557;28;20664;-66
2022/11/26 08:31:26;;;;;;;21.33;15.13;;;22.10;38.70;;;;;;4969084;28;20492;-66
2022/11/26 08:34:01;;;;;;;20.50;14.23;;;22.10;38.60;;;;;;4970092;28;20054;-66
2022/11/26 08:36:29;;;;;;;19.75;14.88;;;22.10;38.50;;;;;;4969031;28;20050;-66
2022/11/26 08:38:58;;;;;;;22.30;14.95;;;22.20;38.50;;;;;;4969061;28;20371;-66
2022/11/26 08:41:25;;;;;;;22.33;15.38;;;22.20;38.50;;;;;;4969273;28;20050;-66
2022/11/26 08:43:52;;;;;;;19.77;14.50;;;22.20;38.40;;;;;;4969530;28;20050;-66
2022/11/26 08:46:39;;;;;;;21.40;15.70;;;22.20;38.40;;;;;;4968792;28;20064;-66
2022/11/26 08:49:10;;;;;;;22.10;15.82;;;22.30;38.40;;;;;;4968978;28;20484;-66
2022/11/26 08:51:37;;;;;;;22.90;16.30;;;22.30;38.30;;;;;;4967535;28;20057;-66
2022/11/26 08:54:05;;;;;;;22.83;15.38;;;22.40;38.30;;;;;;4969179;28;20260;-66
2022/11/26 08:56:33;;;;;;;23.00;16.63;;;22.40;38.20;;;;;;4967596;28;20051;-67
2022/11/26 08:59:00;;;;;;;23.50;16.45;;;22.40;38.10;;;;;;4952455;28;20348;-66
2022/11/26 09:01:31;;;;;;;21.58;15.93;;;22.50;38.10;;;;;;4968792;28;20134;-66
2022/11/26 09:04:00;;;;;;;21.83;15.80;;;22.50;38.10;;;;;;4969280;28;20141;-66
2022/11/26 09:06:29;;;;;;;21.63;16.25;;;22.50;38.10;;;;;;4947097;28;20521;-68
2022/11/26 09:09:16;;;;;;;22.30;15.90;;;22.60;38.10;;;;;;4968332;28;20588;-66
2022/11/26 09:11:50;;;;;;;21.17;16.08;;;22.60;38.00;;;;;;4968720;28;20318;-66
2022/11/26 09:14:20;;;;;;;22.38;16.10;;;22.60;37.90;;;;;;4952290;28;20042;-66
2022/11/26 09:16:47;;;;;;;22.70;16.17;;;22.60;37.90;;;;;;4967908;28;20062;-66
2022/11/26 09:19:14;;;;;;;19.80;15.60;;;22.70;37.90;;;;;;4968847;28;20058;-66
2022/11/26 09:21:42;;;;;;;21.63;15.15;;;22.70;37.90;;;;;;4968955;28;20051;-66
2022/11/26 09:24:09;;;;;;;22.23;15.45;;;22.70;37.80;;;;;;4968883;28;20054;-66
2022/11/26 09:26:36;;;;;;;20.02;14.52;;;22.70;37.80;;;;;;4968465;28;20054;-66
2022/11/26 09:29:03;;;;;;;20.55;14.95;;;22.80;37.80;;;;;;4969097;28;20047;-66
2022/11/26 09:31:34;;;;;;;21.70;15.02;;;22.80;37.70;;;;;;4952263;28;20082;-67
2022/11/26 09:34:24;;;;;;;21.02;15.52;;;22.80;37.70;;;;;;4969904;28;20046;-66
2022/11/26 09:36:51;;;;;;;19.15;14.63;;;22.80;37.70;;;;;;4971005;28;20054;-66
2022/11/26 09:39:18;;;;;;;21.45;15.45;;;22.80;37.70;;;;;;4966292;28;20055;-66
2022/11/26 09:42:11;;;;;;;19.95;14.73;;;22.80;37.70;;;;;;4972415;28;20058;-66
2022/11/26 09:44:55;;;;;;;20.00;14.15;;;22.90;37.70;;;;;;4957758;28;20058;-66
2022/11/26 09:47:26;;;;;;;19.38;14.25;;;22.90;37.70;;;;;;4972151;28;20066;-66
2022/11/26 09:50:19;;;;;;;16.42;13.40;;;22.90;37.70;;;;;;4971398;28;20050;-66
2022/11/26 09:52:59;;;;;;;18.30;13.82;;;22.90;37.60;;;;;;4971838;28;20488;-66
2022/11/26 09:55:35;;;;;;;17.75;12.93;;;22.90;37.60;;;;;;4971757;28;20059;-66
2022/11/26 09:58:28;;;;;;;18.63;13.27;;;23.00;37.60;;;;;;4971921;28;20046;-66
2022/11/26 10:00:58;;;;;;;16.98;12.88;;;23.00;37.50;;;;;;4971512;28;20105;-66
2022/11/26 10:03:33;;;;;;;;;;;23.00;37.50;;;;;;4972127;28;20555;-66
2022/11/26 10:06:17;;;;;;;17.50;12.88;;;23.00;38.00;;;;;;4971252;28;19929;-66
2022/11/26 10:09:04;;;;;;;17.88;12.60;;;23.00;37.40;;;;;;4971916;28;20065;-66
2022/11/26 10:12:07;;;;;;;15.85;11.88;;;23.10;37.30;;;;;;4971508;28;20514;-66
2022/11/26 10:15:10;;;;;;;15.98;12.13;;;23.10;37.30;;;;;;4959250;28;20130;-66
2022/11/26 10:18:06;;;;;;;15.93;12.45;;;23.10;37.30;;;;;;4971235;28;20528;-66
2022/11/26 10:21:04;;;;;;;15.77;11.25;;;23.20;37.30;;;;;;4971671;28;20050;-66
2022/11/26 10:23:39;;;;;;;15.60;11.77;;;23.20;37.20;;;;;;4954631;28;20650;-66
2022/11/26 10:26:22;;;;;;;18.40;11.00;;;23.20;37.10;;;;;;4968300;28;20050;-66
2022/11/26 10:28:56;;;;;;;13.95;11.20;;;23.20;37.10;;;;;;4966969;28;20051;-66
2022/11/26 10:31:30;;;;;;;14.20;10.50;;;23.20;37.10;;;;;;4969980;28;20058;-66
2022/11/26 10:34:01;;;;;;;12.90;9.82;;;23.30;37.10;;;;;;4970863;28;20093;-66
2022/11/26 10:36:38;;;;;;;14.15;10.25;;;23.30;37.10;;;;;;4970703;28;20237;-66
2022/11/26 10:39:07;;;;;;;12.27;9.38;;;23.30;37.10;;;;;;4970696;28;20042;-66
2022/11/26 10:41:36;;;;;;;12.32;9.20;;;23.30;37.10;;;;;;4971322;28;20253;-66
2022/11/26 10:44:27;;;;;;;12.27;8.98;;;23.30;37.10;;;;;;4971018;28;20216;-66
2022/11/26 10:46:55;;;;;;;12.60;9.07;;;23.30;37.10;;;;;;4969631;28;20050;-66
2022/11/26 10:49:27;;;;;;;10.82;8.50;;;23.30;37.00;;;;;;4953768;28;20051;-66
2022/11/26 10:52:00;;;;;;;11.07;8.73;;;23.30;37.00;;;;;;4970695;28;20051;-66
2022/11/26 10:54:34;;;;;;;10.65;8.07;;;23.40;37.00;;;;;;4970059;28;20089;-65
2022/11/26 10:57:17;;;;;;;10.98;8.35;;;23.40;37.10;;;;;;4970707;28;20061;-65
2022/11/26 10:59:52;;;;;;;9.98;7.68;;;23.40;37.10;;;;;;4952983;28;20045;-65
2022/11/26 11:02:35;;;;;;;10.30;7.80;;;23.50;37.10;;;;;;4951007;28;20081;-65
2022/11/26 11:05:07;;;;;;;8.43;7.38;;;23.50;37.10;;;;;;4966313;28;20378;-66
2022/11/26 11:07:42;;;;;;;8.68;6.95;;;23.50;37.10;;;;;;4970316;28;20055;-65
2022/11/26 11:10:20;;;;;;;10.27;7.93;;;23.50;37.00;;;;;;4970526;28;20046;-65
2022/11/26 11:12:50;;;;;;;10.02;7.30;;;23.50;37.00;;;;;;4970618;28;20401;-66
2022/11/26 11:15:24;;;;;;;8.15;6.75;;;23.50;37.00;;;;;;4953306;28;20042;-65
2022/11/26 11:18:05;;;;;;;7.78;6.47;;;23.50;37.00;;;;;;4970059;28;20088;-66
2022/11/26 11:20:36;;;;;;;10.48;7.78;;;23.50;37.00;;;;;;4969943;28;20109;-65
2022/11/26 11:23:21;;;;;;;7.82;6.50;;;23.40;36.90;;;;;;4970107;28;20050;-65
2022/11/26 11:26:22;;;;;;;8.18;6.55;;;23.40;36.90;;;;;;4970131;28;20324;-65
2022/11/26 11:28:54;;;;;;;10.32;7.10;;;23.40;37.00;;;;;;4970332;28;20386;-65
2022/11/26 11:31:23;;;;;;;8.70;6.60;;;23.40;37.00;;;;;;4969857;28;20082;-65
2022/11/26 11:34:09;;;;;;;8.27;6.38;;;23.40;37.00;;;;;;4953255;28;20062;-66
2022/11/26 11:36:37;;;;;;;7.05;5.97;;;23.40;37.10;;;;;;4955041;28;20078;-65
2022/11/26 11:39:04;;;;;;;7.00;6.03;;;23.40;37.10;;;;;;4965418;28;20256;-65
2022/11/26 11:41:42;;;;;;;6.40;5.50;;;23.30;37.10;;;;;;4952776;28;20054;-65
2022/11/26 11:44:19;;;;;;;7.75;5.50;;;23.30;37.10;;;;;;4969973;28;20058;-65
2022/11/26 11:47:19;;;;;;;7.53;5.80;;;23.40;37.10;;;;;;4970220;28;20382;-65
2022/11/26 11:50:17;;;;;;;5.43;4.82;;;23.30;37.20;;;;;;4952237;28;20410;-65
2022/11/26 11:53:19;;;;;;;6.97;5.38;;;23.30;37.20;;;;;;4955779;28;20051;-65
2022/11/26 11:56:19;;;;;;;6.75;5.55;;;23.30;37.30;;;;;;4969421;28;20042;-64
2022/11/26 11:59:35;;;;;;;8.98;5.38;;;23.30;37.30;;;;;;4970086;28;20047;-64
2022/11/26 12:02:38;;;;;;;6.50;4.78;;;23.30;37.30;;;;;;4969474;28;20047;-65
2022/11/26 12:05:30;;;;;;;5.63;4.60;;;23.30;37.30;;;;;;4969771;28;20046;-65
2022/11/26 12:08:25;;;;;;;5.75;4.25;;;23.20;37.30;;;;;;4954935;28;20515;-66
2022/11/26 12:11:18;;;;;;;6.65;4.93;;;23.30;37.40;;;;;;4965139;28;20050;-65
2022/11/26 12:13:57;;;;;;;6.75;4.43;;;23.30;37.30;;;;;;4968900;28;20051;-65
2022/11/26 12:16:27;;;;;;;5.82;4.63;;;23.20;37.30;;;;;;4969607;28;20481;-64
2022/11/26 12:19:11;;;;;;;5.00;4.10;;;23.30;37.40;;;;;;4968864;28;20047;-65
2022/11/26 12:21:47;;;;;;;5.85;4.35;;;23.20;37.30;;;;;;4969463;28;20061;-65
2022/11/26 12:24:36;;;;;;;5.90;4.50;;;23.30;37.40;;;;;;4969407;28;20043;-65
2022/11/26 12:27:37;;;;;;;6.00;4.07;;;23.20;37.40;;;;;;4969660;28;20117;-65
2022/11/26 12:30:18;;;;;;;4.38;3.97;;;23.30;37.40;;;;;;4969180;28;20061;-65
2022/11/26 12:32:56;;;;;;;6.35;4.45;;;23.20;37.40;;;;;;4968548;28;20046;-65
2022/11/26 12:35:39;;;;;;;5.90;4.75;;;23.30;37.40;;;;;;4969652;28;20500;-65
2022/11/26 12:38:15;;;;;;;4.68;4.18;;;23.20;37.40;;;;;;4951437;28;20090;-65
2022/11/26 12:40:53;;;;;;;6.65;4.03;;;23.20;37.40;;;;;;4953119;28;20051;-64
2022/11/26 12:44:01;;;;;;;5.25;3.75;;;23.20;37.40;;;;;;4968865;28;20146;-65
2022/11/26 12:46:46;;;;;;;4.65;3.97;;;23.20;37.40;;;;;;4956913;28;20047;-65
2022/11/26 12:49:35;;;;;;;5.13;4.07;;;23.20;37.40;;;;;;4968900;28;20125;-65
2022/11/26 12:52:41;;;;;;;3.90;3.28;;;23.20;37.50;;;;;;4968792;28;20050;-65
2022/11/26 12:55:37;;;;;;;3.50;3.20;;;23.20;37.50;;;;;;4947168;28;20042;-65
2022/11/26 12:58:20;;;;;;;4.82;3.53;;;23.10;37.50;;;;;;4971092;28;20058;-66
2022/11/26 13:00:52;;;;;;;4.88;3.15;;;23.10;37.40;;;;;;4966570;28;20053;-64